sensor_id;sensor_type;location;lat;lon;timestamp;temperature;humidity
31837;DHT22;18401;49.344;6.240;2023-07-20T00:01:13;13.50;99.90
31837;DHT22;18401;49.344;6.240;2023-07-20T00:03:40;13.50;99.90
31837;DHT22;18401;49.344;6.240;2023-07-20T00:06:05;13.50;99.90
31837;DHT22;18401;49.344;6.240;2023-07-20T00:08:31;13.40;99.90
31837;DHT22;18401;49.344;6.240;2023-07-20T00:10:57;13.40;99.90
31837;DHT22;18401;49.344;6.240;2023-07-20T00:13:22;13.40;99.90
31837;DHT22;18401;49.344;6.240;2023-07-20T00:15:48;13.30;99.90
31837;DHT22;18401;49.344;6.240;2023-07-20T00:18:13;13.30;99.90
31837;DHT22;18401;49.344;6.240;2023-07-20T00:20:39;13.20;99.90
31837;DHT22;18401;49.344;6.240;2023-07-20T00:23:05;13.30;99.90
31837;DHT22;18401;49.344;6.240;2023-07-20T00:25:31;13.30;99.90
31837;DHT22;18401;49.344;6.240;2023-07-20T00:27:57;13.30;99.90
31837;DHT22;18401;49.344;6.240;2023-07-20T00:30:23;13.30;99.90
31837;DHT22;18401;49.344;6.240;2023-07-20T00:32:48;13.10;99.90
31837;DHT22;18401;49.344;6.240;2023-07-20T00:35:14;13.20;99.90
31837;DHT22;18401;49.344;6.240;2023-07-20T00:37:40;13.20;99.90
31837;DHT22;18401;49.344;6.240;2023-07-20T00:40:06;13.20;99.90
31837;DHT22;18401;49.344;6.240;2023-07-20T00:42:32;13.20;99.90
31837;DHT22;18401;49.344;6.240;2023-07-20T00:44:58;13.30;99.90
31837;DHT22;18401;49.344;6.240;2023-07-20T00:47:24;13.30;99.90
31837;DHT22;18401;49.344;6.240;2023-07-20T00:49:51;13.20;99.90
31837;DHT22;18401;49.344;6.240;2023-07-20T00:52:19;13.10;99.90
31837;DHT22;18401;49.344;6.240;2023-07-20T00:54:46;13.10;99.90
31837;DHT22;18401;49.344;6.240;2023-07-20T00:57:16;13.20;99.90
31837;DHT22;18401;49.344;6.240;2023-07-20T00:59:43;13.20;99.90
31837;DHT22;18401;49.344;6.240;2023-07-20T01:02:09;13.10;99.90
31837;DHT22;18401;49.344;6.240;2023-07-20T01:04:35;13.00;99.90
31837;DHT22;18401;49.344;6.240;2023-07-20T01:07:11;13.00;99.90
31837;DHT22;18401;49.344;6.240;2023-07-20T01:09:44;13.00;99.90
31837;DHT22;18401;49.344;6.240;2023-07-20T01:12:32;13.00;99.90
31837;DHT22;18401;49.344;6.240;2023-07-20T01:14:58;13.00;99.90
31837;DHT22;18401;49.344;6.240;2023-07-20T01:17:24;13.00;99.90
31837;DHT22;18401;49.344;6.240;2023-07-20T01:19:49;12.90;99.90
31837;DHT22;18401;49.344;6.240;2023-07-20T01:25:00;12.80;99.90
31837;DHT22;18401;49.344;6.240;2023-07-20T01:27:56;12.70;99.90
31837;DHT22;18401;49.344;6.240;2023-07-20T01:30:55;12.60;99.90
31837;DHT22;18401;49.344;6.240;2023-07-20T01:33:21;12.40;99.90
31837;DHT22;18401;49.344;6.240;2023-07-20T01:35:56;12.40;99.90
31837;DHT22;18401;49.344;6.240;2023-07-20T01:38:24;12.50;99.90
31837;DHT22;18401;49.344;6.240;2023-07-20T01:40:50;12.50;99.90
31837;DHT22;18401;49.344;6.240;2023-07-20T01:43:17;12.60;99.90
31837;DHT22;18401;49.344;6.240;2023-07-20T01:45:43;12.50;99.90
31837;DHT22;18401;49.344;6.240;2023-07-20T01:48:09;12.50;99.90
31837;DHT22;18401;49.344;6.240;2023-07-20T01:50:35;12.50;99.90
31837;DHT22;18401;49.344;6.240;2023-07-20T01:53:01;12.30;99.90
31837;DHT22;18401;49.344;6.240;2023-07-20T01:55:27;12.20;99.90
31837;DHT22;18401;49.344;6.240;2023-07-20T01:57:53;12.00;99.90
31837;DHT22;18401;49.344;6.240;2023-07-20T02:00:18;11.90;99.90
31837;DHT22;18401;49.344;6.240;2023-07-20T02:02:46;11.70;99.90
31837;DHT22;18401;49.344;6.240;2023-07-20T02:05:12;11.50;99.90
31837;DHT22;18401;49.344;6.240;2023-07-20T02:07:38;11.50;99.90
31837;DHT22;18401;49.344;6.240;2023-07-20T02:10:05;11.50;99.90
31837;DHT22;18401;49.344;6.240;2023-07-20T02:12:31;11.40;99.90
31837;DHT22;18401;49.344;6.240;2023-07-20T02:14:56;11.50;99.90
31837;DHT22;18401;49.344;6.240;2023-07-20T02:17:22;11.70;99.90
31837;DHT22;18401;49.344;6.240;2023-07-20T02:19:51;11.80;99.90
31837;DHT22;18401;49.344;6.240;2023-07-20T02:22:17;11.80;99.90
31837;DHT22;18401;49.344;6.240;2023-07-20T02:24:43;11.80;99.90
31837;DHT22;18401;49.344;6.240;2023-07-20T02:27:09;11.90;99.90
31837;DHT22;18401;49.344;6.240;2023-07-20T02:29:35;11.90;99.90
31837;DHT22;18401;49.344;6.240;2023-07-20T02:32:01;11.90;99.90
31837;DHT22;18401;49.344;6.240;2023-07-20T02:34:27;11.80;99.90
31837;DHT22;18401;49.344;6.240;2023-07-20T02:36:53;11.80;99.90
31837;DHT22;18401;49.344;6.240;2023-07-20T02:39:22;11.70;99.90
31837;DHT22;18401;49.344;6.240;2023-07-20T02:41:47;11.80;99.90
31837;DHT22;18401;49.344;6.240;2023-07-20T02:44:14;11.70;99.90
31837;DHT22;18401;49.344;6.240;2023-07-20T02:46:41;11.50;99.90
31837;DHT22;18401;49.344;6.240;2023-07-20T02:49:07;11.30;99.90
31837;DHT22;18401;49.344;6.240;2023-07-20T02:51:33;11.40;99.90
31837;DHT22;18401;49.344;6.240;2023-07-20T02:53:59;11.40;99.90
31837;DHT22;18401;49.344;6.240;2023-07-20T02:56:24;11.50;99.90
31837;DHT22;18401;49.344;6.240;2023-07-20T02:58:50;11.60;99.90
31837;DHT22;18401;49.344;6.240;2023-07-20T03:01:16;11.60;99.90
31837;DHT22;18401;49.344;6.240;2023-07-20T03:03:44;11.60;99.90
31837;DHT22;18401;49.344;6.240;2023-07-20T03:06:19;11.60;99.90
31837;DHT22;18401;49.344;6.240;2023-07-20T03:08:44;11.50;99.90
31837;DHT22;18401;49.344;6.240;2023-07-20T03:11:14;11.40;99.90
31837;DHT22;18401;49.344;6.240;2023-07-20T03:13:41;11.30;99.90
31837;DHT22;18401;49.344;6.240;2023-07-20T03:16:08;11.20;99.90
31837;DHT22;18401;49.344;6.240;2023-07-20T03:18:39;11.10;99.90
31837;DHT22;18401;49.344;6.240;2023-07-20T03:21:06;10.90;99.90
31837;DHT22;18401;49.344;6.240;2023-07-20T03:23:32;10.90;99.90
31837;DHT22;18401;49.344;6.240;2023-07-20T03:25:58;11.00;99.90
31837;DHT22;18401;49.344;6.240;2023-07-20T03:28:24;11.30;99.90
31837;DHT22;18401;49.344;6.240;2023-07-20T03:30:56;11.30;99.90
31837;DHT22;18401;49.344;6.240;2023-07-20T03:33:26;11.50;99.90
31837;DHT22;18401;49.344;6.240;2023-07-20T03:35:53;11.40;99.90
31837;DHT22;18401;49.344;6.240;2023-07-20T03:38:19;11.40;99.90
31837;DHT22;18401;49.344;6.240;2023-07-20T03:40:55;11.30;99.90
31837;DHT22;18401;49.344;6.240;2023-07-20T03:43:25;11.40;99.90
31837;DHT22;18401;49.344;6.240;2023-07-20T03:45:52;11.40;99.90
31837;DHT22;18401;49.344;6.240;2023-07-20T03:48:19;11.50;99.90
31837;DHT22;18401;49.344;6.240;2023-07-20T03:50:46;11.50;99.90
31837;DHT22;18401;49.344;6.240;2023-07-20T03:53:12;11.50;99.90
31837;DHT22;18401;49.344;6.240;2023-07-20T03:55:38;11.50;99.90
31837;DHT22;18401;49.344;6.240;2023-07-20T03:58:06;11.40;99.90
31837;DHT22;18401;49.344;6.240;2023-07-20T04:00:32;11.40;99.90
31837;DHT22;18401;49.344;6.240;2023-07-20T04:02:57;11.40;99.90
31837;DHT22;18401;49.344;6.240;2023-07-20T04:05:23;11.50;99.90
31837;DHT22;18401;49.344;6.240;2023-07-20T04:07:48;11.70;99.90
31837;DHT22;18401;49.344;6.240;2023-07-20T04:10:14;11.60;99.90
31837;DHT22;18401;49.344;6.240;2023-07-20T04:12:40;11.40;99.90
31837;DHT22;18401;49.344;6.240;2023-07-20T04:15:06;11.40;99.90
31837;DHT22;18401;49.344;6.240;2023-07-20T04:17:32;11.50;99.90
31837;DHT22;18401;49.344;6.240;2023-07-20T04:19:58;11.60;99.90
31837;DHT22;18401;49.344;6.240;2023-07-20T04:22:24;11.60;99.90
31837;DHT22;18401;49.344;6.240;2023-07-20T04:24:49;11.60;99.90
31837;DHT22;18401;49.344;6.240;2023-07-20T04:27:15;11.70;99.90
31837;DHT22;18401;49.344;6.240;2023-07-20T04:29:40;11.70;99.90
31837;DHT22;18401;49.344;6.240;2023-07-20T04:32:07;11.80;99.90
31837;DHT22;18401;49.344;6.240;2023-07-20T04:34:32;11.80;99.90
31837;DHT22;18401;49.344;6.240;2023-07-20T04:37:03;11.90;99.90
31837;DHT22;18401;49.344;6.240;2023-07-20T04:39:29;12.10;99.90
31837;DHT22;18401;49.344;6.240;2023-07-20T04:41:54;12.10;99.90
31837;DHT22;18401;49.344;6.240;2023-07-20T04:44:20;12.10;99.90
31837;DHT22;18401;49.344;6.240;2023-07-20T04:46:45;12.20;99.90
31837;DHT22;18401;49.344;6.240;2023-07-20T04:49:11;12.30;99.90
31837;DHT22;18401;49.344;6.240;2023-07-20T04:51:38;12.50;99.90
31837;DHT22;18401;49.344;6.240;2023-07-20T04:54:04;12.70;99.90
31837;DHT22;18401;49.344;6.240;2023-07-20T04:56:29;12.80;99.90
31837;DHT22;18401;49.344;6.240;2023-07-20T04:58:55;13.00;99.90
31837;DHT22;18401;49.344;6.240;2023-07-20T05:01:21;13.00;99.90
31837;DHT22;18401;49.344;6.240;2023-07-20T05:03:46;13.20;99.90
31837;DHT22;18401;49.344;6.240;2023-07-20T05:06:12;13.30;99.90
31837;DHT22;18401;49.344;6.240;2023-07-20T05:08:38;13.40;99.90
31837;DHT22;18401;49.344;6.240;2023-07-20T05:11:04;13.30;99.90
31837;DHT22;18401;49.344;6.240;2023-07-20T05:13:30;13.40;99.90
31837;DHT22;18401;49.344;6.240;2023-07-20T05:15:55;13.60;99.90
31837;DHT22;18401;49.344;6.240;2023-07-20T05:18:22;13.70;99.90
31837;DHT22;18401;49.344;6.240;2023-07-20T05:20:48;14.00;99.90
31837;DHT22;18401;49.344;6.240;2023-07-20T05:23:14;14.10;99.90
31837;DHT22;18401;49.344;6.240;2023-07-20T05:25:40;14.30;99.90
31837;DHT22;18401;49.344;6.240;2023-07-20T05:28:06;14.30;99.90
31837;DHT22;18401;49.344;6.240;2023-07-20T05:30:32;14.40;99.90
31837;DHT22;18401;49.344;6.240;2023-07-20T05:32:58;14.50;99.90
31837;DHT22;18401;49.344;6.240;2023-07-20T05:35:23;14.60;99.90
31837;DHT22;18401;49.344;6.240;2023-07-20T05:37:49;14.70;99.90
31837;DHT22;18401;49.344;6.240;2023-07-20T05:40:15;14.70;99.90
31837;DHT22;18401;49.344;6.240;2023-07-20T05:42:45;14.80;99.90
31837;DHT22;18401;49.344;6.240;2023-07-20T05:45:11;14.90;99.90
31837;DHT22;18401;49.344;6.240;2023-07-20T05:47:37;14.90;99.90
31837;DHT22;18401;49.344;6.240;2023-07-20T05:50:03;15.00;99.90
31837;DHT22;18401;49.344;6.240;2023-07-20T05:52:29;15.20;99.90
31837;DHT22;18401;49.344;6.240;2023-07-20T05:54:55;15.30;99.90
31837;DHT22;18401;49.344;6.240;2023-07-20T05:57:20;15.40;99.90
31837;DHT22;18401;49.344;6.240;2023-07-20T05:59:46;15.50;99.90
31837;DHT22;18401;49.344;6.240;2023-07-20T06:02:12;15.60;99.90
31837;DHT22;18401;49.344;6.240;2023-07-20T06:04:39;15.60;99.90
31837;DHT22;18401;49.344;6.240;2023-07-20T06:07:05;15.80;99.90
31837;DHT22;18401;49.344;6.240;2023-07-20T06:09:30;15.90;99.90
31837;DHT22;18401;49.344;6.240;2023-07-20T06:11:56;15.90;99.90
31837;DHT22;18401;49.344;6.240;2023-07-20T06:14:22;16.00;99.90
31837;DHT22;18401;49.344;6.240;2023-07-20T06:16:48;16.10;99.90
31837;DHT22;18401;49.344;6.240;2023-07-20T06:19:13;16.20;99.90
31837;DHT22;18401;49.344;6.240;2023-07-20T06:21:39;16.30;99.90
31837;DHT22;18401;49.344;6.240;2023-07-20T06:24:05;16.40;99.90
31837;DHT22;18401;49.344;6.240;2023-07-20T06:26:31;16.40;99.90
31837;DHT22;18401;49.344;6.240;2023-07-20T06:28:57;16.50;99.90
31837;DHT22;18401;49.344;6.240;2023-07-20T06:31:23;16.50;99.90
31837;DHT22;18401;49.344;6.240;2023-07-20T06:33:49;16.60;99.90
31837;DHT22;18401;49.344;6.240;2023-07-20T06:36:17;16.70;99.90
31837;DHT22;18401;49.344;6.240;2023-07-20T06:38:43;16.80;99.90
31837;DHT22;18401;49.344;6.240;2023-07-20T06:41:09;16.90;99.90
31837;DHT22;18401;49.344;6.240;2023-07-20T06:43:34;17.00;99.90
31837;DHT22;18401;49.344;6.240;2023-07-20T06:46:00;17.00;99.90
31837;DHT22;18401;49.344;6.240;2023-07-20T06:48:26;17.00;99.90
31837;DHT22;18401;49.344;6.240;2023-07-20T06:50:51;17.30;99.90
31837;DHT22;18401;49.344;6.240;2023-07-20T06:53:17;17.30;99.90
31837;DHT22;18401;49.344;6.240;2023-07-20T06:55:43;17.40;99.90
31837;DHT22;18401;49.344;6.240;2023-07-20T06:58:10;17.50;99.90
31837;DHT22;18401;49.344;6.240;2023-07-20T07:00:35;17.70;99.90
31837;DHT22;18401;49.344;6.240;2023-07-20T07:03:01;17.90;99.90
31837;DHT22;18401;49.344;6.240;2023-07-20T07:05:26;18.10;99.90
31837;DHT22;18401;49.344;6.240;2023-07-20T07:07:52;18.00;99.90
31837;DHT22;18401;49.344;6.240;2023-07-20T07:10:18;17.90;99.90
31837;DHT22;18401;49.344;6.240;2023-07-20T07:12:43;17.90;99.90
31837;DHT22;18401;49.344;6.240;2023-07-20T07:15:09;18.10;99.90
31837;DHT22;18401;49.344;6.240;2023-07-20T07:17:36;18.10;99.90
31837;DHT22;18401;49.344;6.240;2023-07-20T07:20:02;18.30;99.90
31837;DHT22;18401;49.344;6.240;2023-07-20T07:22:29;18.30;99.90
31837;DHT22;18401;49.344;6.240;2023-07-20T07:24:54;18.40;99.90
31837;DHT22;18401;49.344;6.240;2023-07-20T07:27:21;18.60;99.90
31837;DHT22;18401;49.344;6.240;2023-07-20T07:29:46;18.70;99.90
31837;DHT22;18401;49.344;6.240;2023-07-20T07:32:12;18.60;99.90
31837;DHT22;18401;49.344;6.240;2023-07-20T07:34:38;18.60;99.90
31837;DHT22;18401;49.344;6.240;2023-07-20T07:37:07;18.60;99.90
31837;DHT22;18401;49.344;6.240;2023-07-20T07:39:33;18.90;99.90
31837;DHT22;18401;49.344;6.240;2023-07-20T07:41:59;19.30;99.90
31837;DHT22;18401;49.344;6.240;2023-07-20T07:44:26;19.30;99.90
31837;DHT22;18401;49.344;6.240;2023-07-20T07:46:51;19.40;99.90
31837;DHT22;18401;49.344;6.240;2023-07-20T07:49:17;19.30;99.90
31837;DHT22;18401;49.344;6.240;2023-07-20T07:51:44;19.60;99.90
31837;DHT22;18401;49.344;6.240;2023-07-20T07:54:10;19.60;99.90
31837;DHT22;18401;49.344;6.240;2023-07-20T07:56:36;19.50;99.90
31837;DHT22;18401;49.344;6.240;2023-07-20T07:59:02;19.50;99.90
31837;DHT22;18401;49.344;6.240;2023-07-20T08:01:28;19.70;99.90
31837;DHT22;18401;49.344;6.240;2023-07-20T08:03:54;19.80;99.90
31837;DHT22;18401;49.344;6.240;2023-07-20T08:06:19;19.80;99.90
31837;DHT22;18401;49.344;6.240;2023-07-20T08:08:45;19.90;99.90
31837;DHT22;18401;49.344;6.240;2023-07-20T08:11:11;20.00;99.90
31837;DHT22;18401;49.344;6.240;2023-07-20T08:13:36;20.30;99.90
31837;DHT22;18401;49.344;6.240;2023-07-20T08:16:02;20.40;99.90
31837;DHT22;18401;49.344;6.240;2023-07-20T08:18:28;20.50;99.90
31837;DHT22;18401;49.344;6.240;2023-07-20T08:20:54;20.50;99.90
31837;DHT22;18401;49.344;6.240;2023-07-20T08:23:20;20.50;99.90
31837;DHT22;18401;49.344;6.240;2023-07-20T08:25:45;20.40;99.90
31837;DHT22;18401;49.344;6.240;2023-07-20T08:28:14;20.00;99.90
31837;DHT22;18401;49.344;6.240;2023-07-20T08:30:44;20.30;99.90
31837;DHT22;18401;49.344;6.240;2023-07-20T08:33:13;20.40;99.90
31837;DHT22;18401;49.344;6.240;2023-07-20T08:35:39;20.40;99.90
31837;DHT22;18401;49.344;6.240;2023-07-20T08:38:05;20.40;99.90
31837;DHT22;18401;49.344;6.240;2023-07-20T08:40:32;20.20;99.90
31837;DHT22;18401;49.344;6.240;2023-07-20T08:42:59;20.70;99.90
31837;DHT22;18401;49.344;6.240;2023-07-20T08:45:29;20.80;99.90
31837;DHT22;18401;49.344;6.240;2023-07-20T08:47:58;21.10;99.90
31837;DHT22;18401;49.344;6.240;2023-07-20T08:50:27;21.20;99.90
31837;DHT22;18401;49.344;6.240;2023-07-20T08:52:57;21.70;99.90
31837;DHT22;18401;49.344;6.240;2023-07-20T08:55:24;21.10;99.90
31837;DHT22;18401;49.344;6.240;2023-07-20T08:57:59;20.70;99.90
31837;DHT22;18401;49.344;6.240;2023-07-20T09:00:26;21.00;99.90
31837;DHT22;18401;49.344;6.240;2023-07-20T09:02:53;21.30;99.90
31837;DHT22;18401;49.344;6.240;2023-07-20T09:05:20;20.90;99.90
31837;DHT22;18401;49.344;6.240;2023-07-20T09:07:46;20.60;99.90
31837;DHT22;18401;49.344;6.240;2023-07-20T09:10:12;20.60;99.90
31837;DHT22;18401;49.344;6.240;2023-07-20T09:12:39;20.70;99.90
31837;DHT22;18401;49.344;6.240;2023-07-20T09:15:07;20.70;99.90
31837;DHT22;18401;49.344;6.240;2023-07-20T09:17:33;21.20;99.90
31837;DHT22;18401;49.344;6.240;2023-07-20T09:20:02;21.00;99.90
31837;DHT22;18401;49.344;6.240;2023-07-20T09:22:33;20.50;99.90
31837;DHT22;18401;49.344;6.240;2023-07-20T09:24:59;20.90;99.90
31837;DHT22;18401;49.344;6.240;2023-07-20T09:27:38;21.00;99.90
31837;DHT22;18401;49.344;6.240;2023-07-20T09:30:05;20.50;99.90
31837;DHT22;18401;49.344;6.240;2023-07-20T09:32:47;20.50;99.90
31837;DHT22;18401;49.344;6.240;2023-07-20T09:37:40;21.10;99.60
31837;DHT22;18401;49.344;6.240;2023-07-20T09:40:07;21.90;99.90
31837;DHT22;18401;49.344;6.240;2023-07-20T09:42:35;21.50;99.90
31837;DHT22;18401;49.344;6.240;2023-07-20T09:45:02;21.80;94.40
31837;DHT22;18401;49.344;6.240;2023-07-20T09:47:28;21.90;93.20
31837;DHT22;18401;49.344;6.240;2023-07-20T09:50:00;22.00;89.70
31837;DHT22;18401;49.344;6.240;2023-07-20T09:52:26;22.60;84.40
31837;DHT22;18401;49.344;6.240;2023-07-20T09:54:52;23.30;70.60
31837;DHT22;18401;49.344;6.240;2023-07-20T09:57:19;22.60;68.20
31837;DHT22;18401;49.344;6.240;2023-07-20T09:59:46;22.90;72.00
31837;DHT22;18401;49.344;6.240;2023-07-20T10:02:20;23.30;65.10
31837;DHT22;18401;49.344;6.240;2023-07-20T10:04:47;22.50;57.80
31837;DHT22;18401;49.344;6.240;2023-07-20T10:07:14;21.90;66.50
31837;DHT22;18401;49.344;6.240;2023-07-20T10:09:41;22.00;65.10
31837;DHT22;18401;49.344;6.240;2023-07-20T10:12:09;22.60;73.40
31837;DHT22;18401;49.344;6.240;2023-07-20T10:14:41;22.80;63.20
31837;DHT22;18401;49.344;6.240;2023-07-20T10:17:07;22.40;54.60
31837;DHT22;18401;49.344;6.240;2023-07-20T10:19:43;22.90;47.70
31837;DHT22;18401;49.344;6.240;2023-07-20T10:22:16;23.30;45.20
31837;DHT22;18401;49.344;6.240;2023-07-20T10:24:46;23.60;43.10
31837;DHT22;18401;49.344;6.240;2023-07-20T10:27:13;23.20;41.80
31837;DHT22;18401;49.344;6.240;2023-07-20T10:29:40;23.30;43.20
31837;DHT22;18401;49.344;6.240;2023-07-20T10:32:08;23.80;29.20
31837;DHT22;18401;49.344;6.240;2023-07-20T10:34:34;23.90;21.40
31837;DHT22;18401;49.344;6.240;2023-07-20T10:37:00;22.70;22.60
31837;DHT22;18401;49.344;6.240;2023-07-20T10:39:27;23.60;31.10
31837;DHT22;18401;49.344;6.240;2023-07-20T10:42:09;23.50;26.60
31837;DHT22;18401;49.344;6.240;2023-07-20T10:44:37;24.30;23.20
31837;DHT22;18401;49.344;6.240;2023-07-20T10:47:09;24.90;9.90
31837;DHT22;18401;49.344;6.240;2023-07-20T10:49:35;24.70;8.10
31837;DHT22;18401;49.344;6.240;2023-07-20T10:52:20;24.90;14.50
31837;DHT22;18401;49.344;6.240;2023-07-20T10:54:49;26.10;1.00
31837;DHT22;18401;49.344;6.240;2023-07-20T10:57:24;25.10;1.00
31837;DHT22;18401;49.344;6.240;2023-07-20T10:59:49;25.50;1.00
31837;DHT22;18401;49.344;6.240;2023-07-20T11:02:18;24.70;1.00
31837;DHT22;18401;49.344;6.240;2023-07-20T11:04:48;23.70;1.00
31837;DHT22;18401;49.344;6.240;2023-07-20T11:07:35;25.40;1.00
31837;DHT22;18401;49.344;6.240;2023-07-20T11:10:15;26.70;1.00
31837;DHT22;18401;49.344;6.240;2023-07-20T11:12:41;26.30;1.00
31837;DHT22;18401;49.344;6.240;2023-07-20T11:15:07;26.00;1.00
31837;DHT22;18401;49.344;6.240;2023-07-20T11:17:33;26.40;1.00
31837;DHT22;18401;49.344;6.240;2023-07-20T11:20:00;25.70;1.00
31837;DHT22;18401;49.344;6.240;2023-07-20T11:22:27;26.10;1.00
31837;DHT22;18401;49.344;6.240;2023-07-20T11:24:56;26.00;1.00
31837;DHT22;18401;49.344;6.240;2023-07-20T11:27:22;25.90;1.00
31837;DHT22;18401;49.344;6.240;2023-07-20T11:29:48;25.40;1.00
31837;DHT22;18401;49.344;6.240;2023-07-20T11:32:20;26.60;1.00
31837;DHT22;18401;49.344;6.240;2023-07-20T11:34:48;27.80;1.00
31837;DHT22;18401;49.344;6.240;2023-07-20T11:37:13;27.90;99.90
31837;DHT22;18401;49.344;6.240;2023-07-20T11:39:39;26.30;99.90
31837;DHT22;18401;49.344;6.240;2023-07-20T11:42:05;26.60;99.90
31837;DHT22;18401;49.344;6.240;2023-07-20T11:44:32;27.20;1.00
31837;DHT22;18401;49.344;6.240;2023-07-20T11:47:08;27.20;1.00
31837;DHT22;18401;49.344;6.240;2023-07-20T11:49:42;28.60;99.90
31837;DHT22;18401;49.344;6.240;2023-07-20T11:52:14;29.30;99.90
31837;DHT22;18401;49.344;6.240;2023-07-20T11:54:41;28.60;99.90
31837;DHT22;18401;49.344;6.240;2023-07-20T11:57:15;27.30;99.90
31837;DHT22;18401;49.344;6.240;2023-07-20T11:59:56;26.40;99.90
31837;DHT22;18401;49.344;6.240;2023-07-20T12:02:29;27.40;99.90
31837;DHT22;18401;49.344;6.240;2023-07-20T12:04:55;27.30;99.90
31837;DHT22;18401;49.344;6.240;2023-07-20T12:07:22;28.10;99.90
31837;DHT22;18401;49.344;6.240;2023-07-20T12:10:07;28.30;99.90
31837;DHT22;18401;49.344;6.240;2023-07-20T12:12:34;27.60;99.90
31837;DHT22;18401;49.344;6.240;2023-07-20T12:15:16;27.50;99.90
31837;DHT22;18401;49.344;6.240;2023-07-20T12:17:49;28.80;99.90
31837;DHT22;18401;49.344;6.240;2023-07-20T12:20:28;29.30;99.90
31837;DHT22;18401;49.344;6.240;2023-07-20T12:23:00;30.20;99.90
31837;DHT22;18401;49.344;6.240;2023-07-20T12:25:39;31.30;99.90
31837;DHT22;18401;49.344;6.240;2023-07-20T12:28:09;30.80;99.90
31837;DHT22;18401;49.344;6.240;2023-07-20T12:30:35;30.70;99.90
31837;DHT22;18401;49.344;6.240;2023-07-20T12:33:02;29.00;99.90
31837;DHT22;18401;49.344;6.240;2023-07-20T12:35:29;28.00;99.90
31837;DHT22;18401;49.344;6.240;2023-07-20T12:37:55;27.00;99.90
31837;DHT22;18401;49.344;6.240;2023-07-20T12:40:21;26.90;99.90
31837;DHT22;18401;49.344;6.240;2023-07-20T12:42:47;28.10;99.90
31837;DHT22;18401;49.344;6.240;2023-07-20T12:45:13;29.40;99.90
31837;DHT22;18401;49.344;6.240;2023-07-20T12:47:39;29.00;99.90
31837;DHT22;18401;49.344;6.240;2023-07-20T12:50:06;27.80;99.90
31837;DHT22;18401;49.344;6.240;2023-07-20T12:52:35;27.10;99.90
31837;DHT22;18401;49.344;6.240;2023-07-20T12:55:02;26.00;99.90
31837;DHT22;18401;49.344;6.240;2023-07-20T12:57:28;24.90;99.90
31837;DHT22;18401;49.344;6.240;2023-07-20T12:59:53;24.90;99.90
31837;DHT22;18401;49.344;6.240;2023-07-20T13:02:19;27.10;99.90
31837;DHT22;18401;49.344;6.240;2023-07-20T13:04:44;27.70;99.90
31837;DHT22;18401;49.344;6.240;2023-07-20T13:07:10;29.10;99.90
31837;DHT22;18401;49.344;6.240;2023-07-20T13:09:38;30.10;99.90
31837;DHT22;18401;49.344;6.240;2023-07-20T13:12:04;31.10;99.90
31837;DHT22;18401;49.344;6.240;2023-07-20T13:14:30;29.70;99.90
31837;DHT22;18401;49.344;6.240;2023-07-20T13:16:56;29.80;99.90
31837;DHT22;18401;49.344;6.240;2023-07-20T13:19:22;28.80;99.90
31837;DHT22;18401;49.344;6.240;2023-07-20T13:21:47;26.90;99.90
31837;DHT22;18401;49.344;6.240;2023-07-20T13:24:13;26.90;99.90
31837;DHT22;18401;49.344;6.240;2023-07-20T13:26:39;28.50;99.90
31837;DHT22;18401;49.344;6.240;2023-07-20T13:29:04;29.60;99.90
31837;DHT22;18401;49.344;6.240;2023-07-20T13:31:30;29.30;99.90
31837;DHT22;18401;49.344;6.240;2023-07-20T13:33:56;29.40;99.90
31837;DHT22;18401;49.344;6.240;2023-07-20T13:36:22;28.90;99.90
31837;DHT22;18401;49.344;6.240;2023-07-20T13:38:48;28.30;99.90
31837;DHT22;18401;49.344;6.240;2023-07-20T13:41:14;28.00;99.90
31837;DHT22;18401;49.344;6.240;2023-07-20T13:43:41;27.20;99.90
31837;DHT22;18401;49.344;6.240;2023-07-20T13:46:07;26.60;99.90
31837;DHT22;18401;49.344;6.240;2023-07-20T13:48:33;27.70;99.90
31837;DHT22;18401;49.344;6.240;2023-07-20T13:50:59;28.60;99.90
31837;DHT22;18401;49.344;6.240;2023-07-20T13:53:25;29.40;99.90
31837;DHT22;18401;49.344;6.240;2023-07-20T13:55:51;28.90;99.90
31837;DHT22;18401;49.344;6.240;2023-07-20T13:58:18;28.80;99.90
31837;DHT22;18401;49.344;6.240;2023-07-20T14:00:43;27.90;99.90
31837;DHT22;18401;49.344;6.240;2023-07-20T14:03:09;27.50;99.90
31837;DHT22;18401;49.344;6.240;2023-07-20T14:05:35;28.80;99.90
31837;DHT22;18401;49.344;6.240;2023-07-20T14:08:00;29.10;99.90
31837;DHT22;18401;49.344;6.240;2023-07-20T14:10:26;29.30;99.90
31837;DHT22;18401;49.344;6.240;2023-07-20T14:12:52;29.60;99.90
31837;DHT22;18401;49.344;6.240;2023-07-20T14:15:17;29.00;99.90
31837;DHT22;18401;49.344;6.240;2023-07-20T14:17:44;29.00;99.90
31837;DHT22;18401;49.344;6.240;2023-07-20T14:20:10;28.30;99.90
31837;DHT22;18401;49.344;6.240;2023-07-20T14:22:36;27.90;99.90
31837;DHT22;18401;49.344;6.240;2023-07-20T14:25:02;28.40;99.90
31837;DHT22;18401;49.344;6.240;2023-07-20T14:27:28;27.60;99.90
31837;DHT22;18401;49.344;6.240;2023-07-20T14:29:54;27.20;99.90
31837;DHT22;18401;49.344;6.240;2023-07-20T14:32:20;26.30;99.90
31837;DHT22;18401;49.344;6.240;2023-07-20T14:34:46;24.90;99.90
31837;DHT22;18401;49.344;6.240;2023-07-20T14:37:11;24.30;99.90
31837;DHT22;18401;49.344;6.240;2023-07-20T14:39:38;24.00;99.90
31837;DHT22;18401;49.344;6.240;2023-07-20T14:42:04;24.00;99.90
31837;DHT22;18401;49.344;6.240;2023-07-20T14:44:30;24.00;99.90
31837;DHT22;18401;49.344;6.240;2023-07-20T14:46:55;24.20;99.90
31837;DHT22;18401;49.344;6.240;2023-07-20T14:49:21;24.30;99.90
31837;DHT22;18401;49.344;6.240;2023-07-20T14:51:47;25.80;99.90
31837;DHT22;18401;49.344;6.240;2023-07-20T14:54:13;27.40;99.90
31837;DHT22;18401;49.344;6.240;2023-07-20T14:56:39;28.80;99.90
31837;DHT22;18401;49.344;6.240;2023-07-20T14:59:13;29.00;99.90
31837;DHT22;18401;49.344;6.240;2023-07-20T15:01:39;28.10;99.90
31837;DHT22;18401;49.344;6.240;2023-07-20T15:04:05;27.40;99.90
31837;DHT22;18401;49.344;6.240;2023-07-20T15:06:30;26.30;99.90
31837;DHT22;18401;49.344;6.240;2023-07-20T15:08:57;25.60;99.90
31837;DHT22;18401;49.344;6.240;2023-07-20T15:11:23;24.90;99.90
31837;DHT22;18401;49.344;6.240;2023-07-20T15:13:48;25.00;99.90
31837;DHT22;18401;49.344;6.240;2023-07-20T15:16:14;25.10;99.90
31837;DHT22;18401;49.344;6.240;2023-07-20T15:18:40;24.90;99.90
31837;DHT22;18401;49.344;6.240;2023-07-20T15:21:06;24.90;99.90
31837;DHT22;18401;49.344;6.240;2023-07-20T15:23:31;24.90;99.90
31837;DHT22;18401;49.344;6.240;2023-07-20T15:25:57;24.80;99.90
31837;DHT22;18401;49.344;6.240;2023-07-20T15:28:22;24.80;99.90
31837;DHT22;18401;49.344;6.240;2023-07-20T15:30:48;25.10;99.90
31837;DHT22;18401;49.344;6.240;2023-07-20T15:33:14;25.40;99.90
31837;DHT22;18401;49.344;6.240;2023-07-20T15:35:40;25.80;99.90
31837;DHT22;18401;49.344;6.240;2023-07-20T15:38:05;26.00;99.90